Portada
METAR-TAF:

METAR-TAF

Aeroports :

Aeroport de Roma-Fiumicino

Roma-Fiumicino, Itàlia

latitud: 41-48N, longitud: 012-14E, altitud: 2 m

Observació

L'informe es va fer fa 41 minuts, a les 04:20 UTC
Vent 3 kt del Est
Temperatura 9°C
Humitat 81%
Pressió 1023 hPa
Visibilitat 10 km o més
Cel ennuvolat a una alçada de 3000 ft

METAR: LIRF 190420Z 10003KT 9999 BKN030 09/06 Q1023 NOSIG

Hora: 06:01 (05:01 UTC)

Pronòstic

L'informe es va fer fa 6 hores i 1 minuts, a les 23:00 UTC
Pronòstic vàlid del 19 a les 00 UTC al 20 a les 06 UTC
Vent 4 kt amb direcció variable
Visibilitat: 4000 m
Cel ennuvolat a una alçada de 2500 ft
boirina
Temporalment
l' 19 a les 00 UTC al 19 a les 06 UTC
Visibilitat: 2000 m
Evolucionant progressivament
l' 19 a les 06 UTC al 19 a les 08 UTC
Visibilitat: 8000 m

TAF: LIRF 182300Z 1900/2006 VRB04KT 4000 BR BKN025 TEMPO 1900/1906 2000 BECMG 1906/1908 8000

Observacions i pronòstics meteorològics de més de 4000 aeroports (METAR i TAF).

Les estacions disponibles són els punts grocs i vermells al mapa.

Posi el ratolí al punt desitjat per veure el nom de l'estació.

Feu clic per veure les observacions i els pronòstics meteorològics.

Per canviar el mapa: feu clic els botons verds amb una creu de color negre per apropar; al botó verd amb un guió per allunyar la imatge; o en les fletxes verdes per a mapes adjacents.


METAR-TAF: